Sperry, Missouri
Current Conditions -  °F | °C
As of 8:55 AM on Saturday 25 Oct 2014 (Local Time) from KIRK Reporting Station
Haze Haze  
Wind Chill: 57°   Ceiling: Unl
Heat Index: 57°   Visibility: 6mi
Dew Point: 57°   Wind: 6mph
Humidity: 100%   Direction: 340°NNW
Pressure: 30.06"   Gusts: NA
Location:  40.149°N, 92.6667°W
Report Text: KIRK 251355Z AUTO 34005KT 6SM BR CLR 14/14 A3006 RMK AO2 SLP181 T01390139
Loading
Personal Weather Stations






























Interactive Weather Map
Tropical Storm Tracking
New forecast layout! Learn more

10-Day Weather Forecast

Advertisements
Track Severe Weather on mobile